createdAt,value
2018-04-18T00:00:15.483Z,1014.55
2018-04-18T00:01:15.500Z,1014.55
2018-04-18T00:02:15.515Z,1014.56
2018-04-18T00:03:15.536Z,1014.52
2018-04-18T00:04:15.569Z,1014.56
2018-04-18T00:05:15.571Z,1014.52
2018-04-18T00:06:15.595Z,1014.53
2018-04-18T00:07:15.609Z,1014.56
2018-04-18T00:08:15.624Z,1014.54
2018-04-18T00:09:15.645Z,1014.57
2018-04-18T00:10:15.659Z,1014.56
2018-04-18T00:11:15.692Z,1014.55
2018-04-18T00:12:15.695Z,1014.59
2018-04-18T00:13:15.713Z,1014.56
2018-04-18T00:14:15.731Z,1014.57
2018-04-18T00:15:15.753Z,1014.58
2018-04-18T00:16:15.768Z,1014.58
2018-04-18T00:17:15.787Z,1014.57
2018-04-18T00:18:15.802Z,1014.59
2018-04-18T00:19:15.818Z,1014.60
2018-04-18T00:20:15.842Z,1014.60
2018-04-18T00:21:15.855Z,1014.58
2018-04-18T00:22:15.873Z,1014.61
2018-04-18T00:23:15.890Z,1014.61
2018-04-18T00:24:15.907Z,1014.61
2018-04-18T00:25:15.929Z,1014.59
2018-04-18T00:26:15.943Z,1014.59
2018-04-18T00:27:15.960Z,1014.64
2018-04-18T00:28:15.982Z,1014.63
2018-04-18T00:29:15.999Z,1014.66
2018-04-18T00:30:16.015Z,1014.66
2018-04-18T00:31:16.039Z,1014.62
2018-04-18T00:32:16.049Z,1014.63
2018-04-18T00:33:16.089Z,1014.63
2018-04-18T00:34:16.087Z,1014.64
2018-04-18T00:35:16.105Z,1014.65
2018-04-18T00:36:16.123Z,1014.65
2018-04-18T00:37:16.180Z,1014.64
2018-04-18T00:38:16.156Z,1014.68
2018-04-18T00:39:16.179Z,1014.71
2018-04-18T00:40:16.193Z,1014.67
2018-04-18T00:41:16.211Z,1014.68
2018-04-18T00:42:16.227Z,1014.71
2018-04-18T00:43:16.245Z,1014.72
2018-04-18T00:44:16.266Z,1014.70
2018-04-18T00:45:16.281Z,1014.73
2018-04-18T00:46:16.296Z,1014.72
2018-04-18T00:47:16.317Z,1014.71
2018-04-18T00:48:16.335Z,1014.72
2018-04-18T00:49:16.353Z,1014.72
2018-04-18T00:50:16.370Z,1014.72
2018-04-18T00:51:16.389Z,1014.74
2018-04-18T00:52:16.417Z,1014.77
2018-04-18T00:53:16.422Z,1014.76
2018-04-18T00:54:16.439Z,1014.77
2018-04-18T00:55:16.459Z,1014.76
2018-04-18T00:56:16.476Z,1014.77
2018-04-18T00:57:16.501Z,1014.71
2018-04-18T00:58:16.515Z,1014.75
2018-04-18T00:59:16.565Z,1014.72
2018-04-18T01:00:16.564Z,1014.76
2018-04-18T01:01:16.566Z,1014.74
2018-04-18T01:02:16.586Z,1014.71
2018-04-18T01:03:16.608Z,1014.72
2018-04-18T01:04:16.617Z,1014.70
2018-04-18T01:05:16.631Z,1014.73
2018-04-18T01:06:16.648Z,1014.73
2018-04-18T01:07:16.670Z,1014.71
2018-04-18T01:08:16.690Z,1014.75
2018-04-18T01:09:16.702Z,1014.74
2018-04-18T01:10:16.721Z,1014.74
2018-04-18T01:11:16.739Z,1014.76
2018-04-18T01:12:16.763Z,1014.77
2018-04-18T01:13:16.778Z,1014.76
2018-04-18T01:14:16.794Z,1014.77
2018-04-18T01:15:16.811Z,1014.76
2018-04-18T01:16:16.827Z,1014.78
2018-04-18T01:17:16.847Z,1014.79
2018-04-18T01:18:16.867Z,1014.76
2018-04-18T01:19:16.881Z,1014.79
2018-04-18T01:20:16.898Z,1014.77
2018-04-18T01:21:16.919Z,1014.78
2018-04-18T01:22:16.932Z,1014.78
2018-04-18T01:23:16.950Z,1014.77
2018-04-18T01:24:16.968Z,1014.76
2018-04-18T01:25:16.983Z,1014.79
2018-04-18T01:26:17.006Z,1014.75
2018-04-18T01:27:17.035Z,1014.74
2018-04-18T01:28:17.038Z,1014.75
2018-04-18T01:29:17.061Z,1014.71
2018-04-18T01:30:17.071Z,1014.74
2018-04-18T01:31:17.089Z,1014.75
2018-04-18T01:32:17.108Z,1014.74
2018-04-18T01:33:17.122Z,1014.72
2018-04-18T01:34:17.142Z,1014.73
2018-04-18T01:35:17.159Z,1014.73
2018-04-18T01:36:17.176Z,1014.71
2018-04-18T01:37:17.201Z,1014.75
2018-04-18T01:38:17.215Z,1014.77
2018-04-18T01:39:17.229Z,1014.74
2018-04-18T01:40:17.246Z,1014.78
2018-04-18T01:41:17.261Z,1014.74
2018-04-18T01:42:17.284Z,1014.76
2018-04-18T01:43:17.303Z,1014.75
2018-04-18T01:44:17.315Z,1014.76
2018-04-18T01:45:17.330Z,1014.81
2018-04-18T01:46:17.348Z,1014.81
2018-04-18T01:47:17.369Z,1014.81
2018-04-18T01:48:17.393Z,1014.84
2018-04-18T01:49:17.402Z,1014.85
2018-04-18T01:50:17.435Z,1014.87
2018-04-18T01:51:17.444Z,1014.90
2018-04-18T01:52:17.456Z,1014.88
2018-04-18T01:53:17.473Z,1014.89
2018-04-18T01:54:17.489Z,1014.89
2018-04-18T01:55:17.506Z,1014.89
2018-04-18T01:56:17.523Z,1014.90
2018-04-18T01:57:17.542Z,1014.92
2018-04-18T01:58:17.559Z,1014.89
2018-04-18T01:59:17.618Z,1014.92
2018-04-18T02:00:17.596Z,1014.93
2018-04-18T02:01:17.614Z,1014.93
2018-04-18T02:02:17.632Z,1014.93
2018-04-18T02:03:17.647Z,1014.95
2018-04-18T02:04:17.667Z,1014.95
2018-04-18T02:05:17.681Z,1014.96
2018-04-18T02:06:17.697Z,1014.96
2018-04-18T02:07:17.722Z,1014.95
2018-04-18T02:08:17.736Z,1015.02
2018-04-18T02:09:17.769Z,1014.98
2018-04-18T02:10:17.771Z,1015.04
2018-04-18T02:11:17.798Z,1015.04
2018-04-18T02:12:17.807Z,1015.02
2018-04-18T02:13:17.818Z,1015.05
2018-04-18T02:14:17.836Z,1015.10
2018-04-18T02:15:17.854Z,1015.08
2018-04-18T02:16:17.877Z,1015.13
2018-04-18T02:17:17.889Z,1015.11
2018-04-18T02:18:17.903Z,1015.11
2018-04-18T02:19:17.923Z,1015.14
2018-04-18T02:20:17.942Z,1015.13
2018-04-18T02:21:17.960Z,1015.15
2018-04-18T02:22:17.973Z,1015.14
2018-04-18T02:23:17.991Z,1015.17
2018-04-18T02:24:18.009Z,1015.15
2018-04-18T02:25:18.024Z,1015.17
2018-04-18T02:26:18.049Z,1015.17
2018-04-18T02:27:18.063Z,1015.15
2018-04-18T02:28:18.080Z,1015.18
2018-04-18T02:29:18.092Z,1015.22
2018-04-18T02:30:18.114Z,1015.18
2018-04-18T02:31:18.138Z,1015.22
2018-04-18T02:32:18.149Z,1015.22
2018-04-18T02:33:18.166Z,1015.23
2018-04-18T02:34:18.182Z,1015.23
2018-04-18T02:35:18.201Z,1015.19
2018-04-18T02:36:18.216Z,1015.21
2018-04-18T02:37:18.233Z,1015.24
2018-04-18T02:38:18.248Z,1015.26
2018-04-18T02:39:18.300Z,1015.29
2018-04-18T02:40:18.288Z,1015.30
2018-04-18T02:41:18.300Z,1015.29
2018-04-18T02:42:18.322Z,1015.33
2018-04-18T02:43:18.339Z,1015.31
2018-04-18T02:44:18.353Z,1015.31
2018-04-18T02:45:18.368Z,1015.32
2018-04-18T02:46:18.393Z,1015.33
2018-04-18T02:47:18.405Z,1015.33
2018-04-18T02:48:18.423Z,1015.31
2018-04-18T02:49:18.438Z,1015.33
2018-04-18T02:50:18.454Z,1015.31
2018-04-18T02:51:18.476Z,1015.32
2018-04-18T02:52:18.491Z,1015.35
2018-04-18T02:53:18.505Z,1015.35
2018-04-18T02:54:18.523Z,1015.34
2018-04-18T02:55:18.539Z,1015.38
2018-04-18T02:56:18.557Z,1015.39
2018-04-18T02:57:18.577Z,1015.40
2018-04-18T02:58:18.596Z,1015.40
2018-04-18T02:59:18.608Z,1015.40
2018-04-18T03:00:18.637Z,1015.41
2018-04-18T03:01:18.658Z,1015.42
2018-04-18T03:02:18.662Z,1015.42
2018-04-18T03:03:18.679Z,1015.44
2018-04-18T03:04:18.695Z,1015.43
2018-04-18T03:05:18.714Z,1015.46
2018-04-18T03:06:18.729Z,1015.43
2018-04-18T03:07:18.748Z,1015.49
2018-04-18T03:08:18.765Z,1015.48
2018-04-18T03:09:18.781Z,1015.48
2018-04-18T03:10:18.803Z,1015.47
2018-04-18T03:11:18.817Z,1015.48
2018-04-18T03:12:18.841Z,1015.47
2018-04-18T03:13:18.853Z,1015.49
2018-04-18T03:14:18.863Z,1015.49
2018-04-18T03:15:18.884Z,1015.52
2018-04-18T03:16:18.898Z,1015.48
2018-04-18T03:17:18.920Z,1015.52
2018-04-18T03:18:18.934Z,1015.49
2018-04-18T03:19:18.952Z,1015.47
2018-04-18T03:20:18.969Z,1015.49
2018-04-18T03:21:18.990Z,1015.49
2018-04-18T03:22:19.003Z,1015.52
2018-04-18T03:23:19.017Z,1015.52
2018-04-18T03:24:19.036Z,1015.53
2018-04-18T03:25:19.053Z,1015.56
2018-04-18T03:26:19.072Z,1015.51
2018-04-18T03:27:19.089Z,1015.56
2018-04-18T03:28:19.117Z,1015.57
2018-04-18T03:29:19.125Z,1015.56
2018-04-18T03:30:19.138Z,1015.58
2018-04-18T03:31:19.159Z,1015.57
2018-04-18T03:32:19.177Z,1015.59
2018-04-18T03:33:19.194Z,1015.54
2018-04-18T03:34:19.207Z,1015.55
2018-04-18T03:35:19.226Z,1015.58
2018-04-18T03:36:19.248Z,1015.55
2018-04-18T03:37:19.258Z,1015.58
2018-04-18T03:38:19.277Z,1015.60
2018-04-18T03:39:19.295Z,1015.58
2018-04-18T03:40:19.312Z,1015.56
2018-04-18T03:41:19.329Z,1015.61
2018-04-18T03:42:19.346Z,1015.62
2018-04-18T03:43:19.366Z,1015.63
2018-04-18T03:44:19.380Z,1015.62
2018-04-18T03:45:19.397Z,1015.65
2018-04-18T03:46:19.426Z,1015.63
2018-04-18T03:47:19.439Z,1015.66
2018-04-18T03:48:19.453Z,1015.68
2018-04-18T03:49:19.462Z,1015.66
2018-04-18T03:50:19.491Z,1015.72
2018-04-18T03:51:19.499Z,1015.71
2018-04-18T03:52:19.512Z,1015.72
2018-04-18T03:53:19.529Z,1015.69
2018-04-18T03:54:19.545Z,1015.69
2018-04-18T03:55:19.573Z,1015.70
2018-04-18T03:56:19.592Z,1015.76
2018-04-18T03:57:19.595Z,1015.72
2018-04-18T03:58:19.615Z,1015.76
2018-04-18T03:59:19.638Z,1015.72
2018-04-18T04:00:19.649Z,1015.73
2018-04-18T04:01:19.668Z,1015.75
2018-04-18T04:02:19.695Z,1015.76
2018-04-18T04:03:19.701Z,1015.74
2018-04-18T04:04:19.716Z,1015.77
2018-04-18T04:05:19.732Z,1015.75
2018-04-18T04:06:19.748Z,1015.75
2018-04-18T04:07:19.766Z,1015.76
2018-04-18T04:08:19.783Z,1015.73
2018-04-18T04:09:19.804Z,1015.78
2018-04-18T04:10:19.821Z,1015.78
2018-04-18T04:11:19.844Z,1015.77
2018-04-18T04:12:19.863Z,1015.82
2018-04-18T04:13:19.868Z,1015.81
2018-04-18T04:14:19.894Z,1015.81
2018-04-18T04:15:19.903Z,1015.84
2018-04-18T04:16:19.919Z,1015.83
2018-04-18T04:17:19.937Z,1015.86
2018-04-18T04:18:19.951Z,1015.89
2018-04-18T04:19:19.979Z,1015.92
2018-04-18T04:20:19.989Z,1015.92
2018-04-18T04:21:20.004Z,1015.92
2018-04-18T04:22:20.021Z,1015.93
2018-04-18T04:23:20.042Z,1015.92
2018-04-18T04:24:20.058Z,1015.92
2018-04-18T04:25:20.073Z,1015.90
2018-04-18T04:26:20.087Z,1015.91
2018-04-18T04:27:20.107Z,1015.94
2018-04-18T04:28:20.124Z,1015.96
2018-04-18T04:29:20.141Z,1015.97
2018-04-18T04:30:20.156Z,1015.97
2018-04-18T04:31:20.173Z,1015.99
2018-04-18T04:32:20.189Z,1015.99
2018-04-18T04:33:20.206Z,1016.01
2018-04-18T04:34:20.227Z,1016.01
2018-04-18T04:35:20.242Z,1016.06
2018-04-18T04:36:20.261Z,1016.05
2018-04-18T04:37:20.274Z,1016.07
2018-04-18T04:38:20.302Z,1016.12
2018-04-18T04:39:20.308Z,1016.12
2018-04-18T04:40:20.326Z,1016.14
2018-04-18T04:41:20.343Z,1016.18
2018-04-18T04:42:20.361Z,1016.17
2018-04-18T04:43:20.390Z,1016.22
2018-04-18T04:44:20.397Z,1016.19
2018-04-18T04:45:20.415Z,1016.18
2018-04-18T04:46:20.431Z,1016.23
2018-04-18T04:47:20.445Z,1016.24
2018-04-18T04:48:20.470Z,1016.24
2018-04-18T04:49:20.477Z,1016.32
2018-04-18T04:50:20.494Z,1016.27
2018-04-18T04:51:20.513Z,1016.29
2018-04-18T04:52:20.527Z,1016.31
2018-04-18T04:53:20.546Z,1016.30
2018-04-18T04:54:20.566Z,1016.36
2018-04-18T04:55:20.635Z,1016.35
2018-04-18T04:56:20.598Z,1016.41
2018-04-18T04:57:20.613Z,1016.41
2018-04-18T04:58:20.675Z,1016.40
2018-04-18T04:59:20.794Z,1016.40
2018-04-18T05:00:20.689Z,1016.44
2018-04-18T05:01:20.687Z,1016.45
2018-04-18T05:02:20.700Z,1016.45
2018-04-18T05:03:20.721Z,1016.50
2018-04-18T05:04:20.740Z,1016.59
2018-04-18T05:05:20.749Z,1016.68
2018-04-18T05:06:20.771Z,1016.80
2018-04-18T05:07:20.783Z,1016.89
2018-04-18T05:08:20.804Z,1016.92
2018-04-18T05:09:20.817Z,1016.93
2018-04-18T05:10:20.870Z,1017.02
2018-04-18T05:11:20.858Z,1017.06
2018-04-18T05:12:20.874Z,1017.12
2018-04-18T05:13:20.896Z,1017.08
2018-04-18T05:14:21.618Z,1017.17
2018-04-18T05:15:20.940Z,1017.17
2018-04-18T05:16:20.946Z,1017.26
2018-04-18T05:17:20.963Z,1017.27
2018-04-18T05:18:20.984Z,1017.32
2018-04-18T05:19:21.009Z,1017.42
2018-04-18T05:20:21.024Z,1017.43
2018-04-18T05:21:21.172Z,1017.46
2018-04-18T05:22:21.066Z,1017.51
2018-04-18T05:23:21.084Z,1017.55
2018-04-18T05:24:21.105Z,1017.59
2018-04-18T05:25:21.125Z,1017.59
2018-04-18T05:26:21.203Z,1017.66
2018-04-18T05:27:21.167Z,1017.67
2018-04-18T05:28:21.190Z,1017.69
2018-04-18T05:29:21.206Z,1017.70
2018-04-18T05:30:21.232Z,1017.79
2018-04-18T05:31:21.251Z,1017.84
2018-04-18T05:32:21.272Z,1017.87
2018-04-18T05:33:21.294Z,1017.86
2018-04-18T05:34:21.314Z,1017.88
2018-04-18T05:35:21.339Z,1017.88
2018-04-18T05:36:21.360Z,1017.93
2018-04-18T05:37:21.545Z,1017.88
2018-04-18T05:38:21.405Z,1018.01
2018-04-18T05:39:21.431Z,1018.05
2018-04-18T05:40:21.449Z,1018.08
2018-04-18T05:41:21.476Z,1018.12
2018-04-18T05:42:21.503Z,1018.23
2018-04-18T05:43:21.518Z,1018.30
2018-04-18T05:44:21.544Z,1018.35
2018-04-18T05:45:21.575Z,1018.41
2018-04-18T05:46:21.588Z,1018.47
2018-04-18T05:47:21.612Z,1018.54
2018-04-18T05:48:21.634Z,1018.62
2018-04-18T05:49:21.780Z,1018.69
2018-04-18T05:50:21.683Z,1018.69
2018-04-18T05:51:21.706Z,1018.78
2018-04-18T05:52:21.736Z,1018.78
2018-04-18T05:53:21.753Z,1018.79
2018-04-18T05:54:21.779Z,1018.77
2018-04-18T05:55:21.853Z,1018.87
2018-04-18T05:56:21.823Z,1018.91
2018-04-18T05:57:21.848Z,1019.01
2018-04-18T05:58:21.875Z,1019.08
2018-04-18T05:59:21.899Z,1019.10
2018-04-18T06:00:21.924Z,1019.14
2018-04-18T06:01:21.960Z,1019.15
2018-04-18T06:02:21.971Z,1019.23
2018-04-18T06:03:22.001Z,1019.22
2018-04-18T06:04:22.047Z,1019.28
2018-04-18T06:05:22.045Z,1019.33
2018-04-18T06:06:22.077Z,1019.40
2018-04-18T06:07:22.123Z,1019.53
2018-04-18T06:08:22.122Z,1019.53
2018-04-18T06:09:22.145Z,1019.69
2018-04-18T06:10:22.171Z,1019.86
2018-04-18T06:11:22.199Z,1020.03
2018-04-18T06:12:22.221Z,1020.23
2018-04-18T06:13:22.249Z,1020.35
2018-04-18T06:14:22.280Z,1020.43
2018-04-18T06:15:22.298Z,1020.68
2018-04-18T06:16:22.327Z,1020.91
2018-04-18T06:17:22.350Z,1020.74
2018-04-18T06:18:22.375Z,1020.77
2018-04-18T06:19:22.409Z,1020.99
2018-04-18T06:20:22.427Z,1021.12
2018-04-18T06:21:22.453Z,1021.28
2018-04-18T06:22:22.479Z,1021.43
2018-04-18T06:23:22.506Z,1021.44
2018-04-18T06:24:22.532Z,1021.56
2018-04-18T06:25:22.556Z,1021.59
2018-04-18T06:26:22.588Z,1021.79
2018-04-18T06:27:22.606Z,1021.80
2018-04-18T06:28:22.646Z,1021.73
2018-04-18T06:29:22.661Z,1021.89
2018-04-18T06:30:22.801Z,1021.88
2018-04-18T06:31:22.715Z,1022.03
2018-04-18T06:32:22.743Z,1022.19
2018-04-18T06:33:22.765Z,1022.11
2018-04-18T06:34:22.791Z,1021.92
2018-04-18T06:35:22.818Z,1021.91
2018-04-18T06:36:22.852Z,1022.02
2018-04-18T06:37:22.871Z,1022.43
2018-04-18T06:38:22.880Z,1022.75
2018-04-18T06:39:22.905Z,1022.41
2018-04-18T06:40:22.934Z,1022.61
2018-04-18T06:41:22.958Z,1023.38
2018-04-18T06:42:23.005Z,1023.84
2018-04-18T06:43:23.213Z,1023.50
2018-04-18T06:44:23.068Z,1023.67
2018-04-18T06:45:23.087Z,1024.02
2018-04-18T06:46:23.116Z,1024.43
2018-04-18T06:47:23.141Z,1024.65
2018-04-18T06:48:23.164Z,1024.52
2018-04-18T06:49:23.191Z,1024.27
2018-04-18T06:50:23.221Z,1024.82
2018-04-18T06:51:23.246Z,1025.30
2018-04-18T06:52:23.278Z,1025.26
2018-04-18T06:53:23.303Z,1025.49
2018-04-18T06:54:23.329Z,1026.14
2018-04-18T06:55:23.355Z,1026.46
2018-04-18T06:56:23.381Z,1027.35
2018-04-18T06:57:23.408Z,1027.04
2018-04-18T06:58:23.441Z,1026.61
2018-04-18T06:59:23.466Z,1027.02
2018-04-18T07:00:23.493Z,1027.51
2018-04-18T07:01:23.628Z,1028.27
2018-04-18T07:02:23.544Z,1029.06
2018-04-18T07:03:23.597Z,1029.18
2018-04-18T07:04:23.600Z,1029.64
2018-04-18T07:05:23.625Z,1031.25
2018-04-18T07:06:23.654Z,1032.13
2018-04-18T07:07:23.683Z,1032.17
2018-04-18T07:08:23.708Z,1032.34
2018-04-18T07:09:23.741Z,1031.88
2018-04-18T07:10:23.769Z,1029.51
2018-04-18T07:11:23.792Z,1029.05
2018-04-18T07:12:23.823Z,1030.73
2018-04-18T07:13:23.841Z,1031.92
2018-04-18T07:14:23.874Z,1032.64
2018-04-18T07:15:24.018Z,1033.68
2018-04-18T07:16:23.927Z,1034.90
2018-04-18T07:17:23.956Z,1034.80
2018-04-18T07:18:23.980Z,1036.82
2018-04-18T07:19:24.013Z,1036.50
2018-04-18T07:20:24.035Z,1034.57
2018-04-18T07:21:24.082Z,1035.72
2018-04-18T07:22:24.089Z,1038.45
2018-04-18T07:23:24.121Z,1038.24
2018-04-18T07:24:24.147Z,1037.41
2018-04-18T07:25:24.176Z,1038.07
2018-04-18T07:26:24.202Z,1040.10
2018-04-18T07:27:24.228Z,1040.61
2018-04-18T07:28:24.257Z,1039.82
2018-04-18T07:29:24.285Z,1039.00
2018-04-18T07:30:24.314Z,1041.14
2018-04-18T07:31:24.367Z,1041.15
2018-04-18T07:32:24.366Z,1041.12
2018-04-18T07:33:24.395Z,1040.50
2018-04-18T07:34:24.480Z,1040.17
2018-04-18T07:35:24.450Z,1039.75
2018-04-18T07:36:24.475Z,1039.60
2018-04-18T07:37:24.503Z,1041.62
2018-04-18T07:38:24.533Z,1044.07
2018-04-18T07:39:24.563Z,1043.90
2018-04-18T07:40:24.594Z,1045.77
2018-04-18T07:41:24.614Z,1046.90
2018-04-18T07:42:24.643Z,1046.12
2018-04-18T07:43:24.672Z,1044.93
2018-04-18T07:44:24.702Z,1045.30
2018-04-18T07:45:24.724Z,1042.02
2018-04-18T07:46:24.754Z,1039.63
2018-04-18T07:47:24.783Z,1041.07
2018-04-18T07:48:24.812Z,1043.21
2018-04-18T07:49:24.840Z,1044.59
2018-04-18T07:50:24.867Z,1045.87
2018-04-18T07:51:24.900Z,1044.62
2018-04-18T07:52:24.938Z,1044.82
2018-04-18T07:53:24.951Z,1045.75
2018-04-18T07:54:24.977Z,1044.26
2018-04-18T07:55:25.007Z,1043.12
2018-04-18T07:56:25.034Z,1043.62
2018-04-18T07:57:25.204Z,1044.90
2018-04-18T07:58:25.092Z,1043.41
2018-04-18T07:59:25.116Z,1042.54
2018-04-18T08:00:25.143Z,1042.40
2018-04-18T08:01:25.173Z,1040.56
2018-04-18T08:02:25.201Z,1038.90
2018-04-18T08:03:25.231Z,1039.16
2018-04-18T08:04:25.263Z,1040.80
2018-04-18T08:05:25.287Z,1042.89
2018-04-18T08:06:25.314Z,1043.91
2018-04-18T08:07:25.346Z,1044.81
2018-04-18T08:08:25.369Z,1044.79
2018-04-18T08:09:25.431Z,1043.53
2018-04-18T08:10:25.425Z,1043.16
2018-04-18T08:11:25.454Z,1043.83
2018-04-18T08:12:25.485Z,1044.58
2018-04-18T08:13:25.509Z,1043.52
2018-04-18T08:14:25.545Z,1040.72
2018-04-18T08:15:25.589Z,1040.68
2018-04-18T08:16:25.593Z,1041.21
2018-04-18T08:17:25.629Z,1041.83
2018-04-18T08:18:25.652Z,1041.32
2018-04-18T08:19:25.680Z,1041.04
2018-04-18T08:20:25.690Z,1040.91
2018-04-18T08:21:25.720Z,1040.93
2018-04-18T08:22:25.750Z,1040.30
2018-04-18T08:23:25.772Z,1038.97
2018-04-18T08:24:25.798Z,1039.87
2018-04-18T08:25:25.848Z,1038.94
2018-04-18T08:26:25.874Z,1037.47
2018-04-18T08:27:25.901Z,1036.75
2018-04-18T08:28:25.929Z,1035.37
2018-04-18T08:29:25.953Z,1032.27
2018-04-18T08:30:25.985Z,1022.53
2018-04-18T08:31:26.011Z,1019.14
2018-04-18T08:32:26.036Z,1019.02
2018-04-18T08:33:26.062Z,1018.98
2018-04-18T08:34:26.089Z,1018.95
2018-04-18T08:35:26.148Z,1018.92
2018-04-18T08:36:26.140Z,1018.91
2018-04-18T08:37:26.166Z,1018.92
2018-04-18T08:38:26.190Z,1018.91
2018-04-18T08:39:26.216Z,1018.90
2018-04-18T08:40:26.241Z,1018.84
2018-04-18T08:41:26.280Z,1018.82
2018-04-18T08:42:26.288Z,1018.83
2018-04-18T08:43:26.317Z,1018.82
2018-04-18T08:44:26.338Z,1018.84
2018-04-18T08:45:26.361Z,1018.80
2018-04-18T08:46:26.395Z,1018.82
2018-04-18T08:47:26.414Z,1018.81
2018-04-18T08:48:26.438Z,1018.83
2018-04-18T08:49:26.475Z,1018.79
2018-04-18T08:50:26.504Z,1018.76
2018-04-18T08:51:26.510Z,1018.76
2018-04-18T08:52:26.540Z,1018.74
2018-04-18T08:53:26.562Z,1018.75
2018-04-18T08:54:26.581Z,1018.71
2018-04-18T08:55:26.610Z,1018.71
2018-04-18T08:56:26.630Z,1018.73
2018-04-18T08:57:26.656Z,1018.67
2018-04-18T08:58:26.683Z,1018.64
2018-04-18T08:59:26.713Z,1018.68
2018-04-18T09:00:26.843Z,1018.66
2018-04-18T09:01:26.875Z,1018.65
2018-04-18T09:02:26.774Z,1018.61
2018-04-18T09:03:26.798Z,1018.58
2018-04-18T09:04:26.821Z,1018.53
2018-04-18T09:05:26.843Z,1018.55
2018-04-18T09:06:26.868Z,1018.56
2018-04-18T09:07:26.893Z,1018.52
2018-04-18T09:08:26.917Z,1018.51
2018-04-18T09:09:26.940Z,1018.49
2018-04-18T09:10:26.960Z,1018.48
2018-04-18T09:11:26.987Z,1018.43
2018-04-18T09:12:27.010Z,1018.45
2018-04-18T09:13:27.034Z,1018.43
2018-04-18T09:14:27.057Z,1018.40
2018-04-18T09:15:27.084Z,1018.43
2018-04-18T09:16:27.109Z,1018.44
2018-04-18T09:17:27.131Z,1018.42
2018-04-18T09:18:27.151Z,1018.40
2018-04-18T09:19:27.175Z,1018.38
2018-04-18T09:20:27.204Z,1018.36
2018-04-18T09:21:27.229Z,1018.36
2018-04-18T09:22:27.251Z,1018.34
2018-04-18T09:23:27.273Z,1018.35
2018-04-18T09:24:27.294Z,1018.33
2018-04-18T09:25:27.317Z,1018.32
2018-04-18T09:26:27.349Z,1018.32
2018-04-18T09:27:27.369Z,1018.33
2018-04-18T09:28:27.436Z,1018.33
2018-04-18T09:29:27.426Z,1018.31
2018-04-18T09:30:27.437Z,1018.34
2018-04-18T09:31:27.464Z,1018.34
2018-04-18T09:32:27.489Z,1018.33
2018-04-18T09:33:27.507Z,1018.34
2018-04-18T09:34:27.531Z,1018.33
2018-04-18T09:35:27.557Z,1018.33
2018-04-18T09:36:27.583Z,1018.34
2018-04-18T09:37:27.603Z,1018.34
2018-04-18T09:38:27.626Z,1018.29
2018-04-18T09:39:27.652Z,1018.26
2018-04-18T09:40:27.679Z,1018.29
2018-04-18T09:41:27.698Z,1018.24
2018-04-18T09:42:27.722Z,1018.27
2018-04-18T09:43:27.745Z,1018.25
2018-04-18T09:44:27.774Z,1018.28
2018-04-18T09:45:27.796Z,1018.24
2018-04-18T09:46:27.817Z,1018.25
2018-04-18T09:47:27.843Z,1018.23
2018-04-18T09:48:27.870Z,1018.24
2018-04-18T09:49:27.892Z,1018.23
2018-04-18T09:50:27.929Z,1018.19
2018-04-18T09:51:27.942Z,1018.22
2018-04-18T09:52:27.965Z,1018.17
2018-04-18T09:53:27.983Z,1018.19
2018-04-18T09:54:28.048Z,1018.16
2018-04-18T09:55:28.030Z,1018.17
2018-04-18T09:56:28.052Z,1018.15
2018-04-18T09:57:28.080Z,1018.16
2018-04-18T09:58:28.175Z,1018.17
2018-04-18T09:59:28.130Z,1018.16
2018-04-18T10:00:28.153Z,1018.14
2018-04-18T10:01:28.171Z,1018.14
2018-04-18T10:02:28.203Z,1018.11
2018-04-18T10:03:28.221Z,1018.11
2018-04-18T10:04:28.255Z,1018.08
2018-04-18T10:05:28.263Z,1018.06
2018-04-18T10:06:28.289Z,1018.06
2018-04-18T10:07:28.317Z,1018.04
2018-04-18T10:08:28.336Z,1018.07
2018-04-18T10:09:28.358Z,1018.08
2018-04-18T10:10:28.382Z,1018.07
2018-04-18T10:11:28.409Z,1018.04
2018-04-18T10:12:28.434Z,1018.03
2018-04-18T10:13:28.451Z,1018.01
2018-04-18T10:14:28.476Z,1018.03
2018-04-18T10:15:28.500Z,1018.02
2018-04-18T10:16:28.525Z,1018.01
2018-04-18T10:17:28.548Z,1018.02
2018-04-18T10:18:28.570Z,1018.02
2018-04-18T10:19:28.597Z,1018.03
2018-04-18T10:20:28.618Z,1018.02
2018-04-18T10:21:28.645Z,1018.02
2018-04-18T10:22:28.664Z,1018.04
2018-04-18T10:23:28.687Z,1018.02
2018-04-18T10:24:28.714Z,1018.06
2018-04-18T10:25:28.735Z,1018.06
2018-04-18T10:26:28.758Z,1018.07
2018-04-18T10:27:28.789Z,1018.03
2018-04-18T10:28:28.805Z,1018.06
2018-04-18T10:29:28.830Z,1018.04
2018-04-18T10:30:28.859Z,1018.05
2018-04-18T10:31:28.878Z,1018.04
2018-04-18T10:32:28.906Z,1018.02
2018-04-18T10:33:28.927Z,1018.03
2018-04-18T10:34:28.948Z,1018.02
2018-04-18T10:35:28.972Z,1018.03
2018-04-18T10:36:28.997Z,1017.98
2018-04-18T10:37:29.020Z,1017.97
2018-04-18T10:38:29.046Z,1017.95
2018-04-18T10:39:29.069Z,1017.96
2018-04-18T10:40:29.094Z,1017.94
2018-04-18T10:41:29.114Z,1017.96
2018-04-18T10:42:29.140Z,1017.93
2018-04-18T10:43:29.168Z,1017.99
2018-04-18T10:44:29.193Z,1017.94
2018-04-18T10:45:29.214Z,1017.93
2018-04-18T10:46:29.235Z,1017.93
2018-04-18T10:47:29.259Z,1017.97
2018-04-18T10:48:29.290Z,1017.90
2018-04-18T10:49:29.308Z,1017.95
2018-04-18T10:50:29.335Z,1017.94
2018-04-18T10:51:29.369Z,1017.94
2018-04-18T10:52:29.383Z,1017.93
2018-04-18T10:53:29.407Z,1017.95
2018-04-18T10:54:29.431Z,1017.94
2018-04-18T10:55:29.455Z,1017.97
2018-04-18T10:56:29.487Z,1017.98
2018-04-18T10:57:29.503Z,1017.96
2018-04-18T10:58:29.533Z,1017.93
2018-04-18T10:59:29.558Z,1017.96
2018-04-18T11:00:29.576Z,1017.94
2018-04-18T11:01:29.654Z,1017.94
2018-04-18T11:02:29.626Z,1017.92
2018-04-18T11:03:29.657Z,1017.90
2018-04-18T11:04:29.675Z,1017.91
2018-04-18T11:05:29.698Z,1017.95
2018-04-18T11:06:29.743Z,1017.91
2018-04-18T11:07:29.746Z,1017.87
2018-04-18T11:08:29.774Z,1017.92
2018-04-18T11:09:29.799Z,1017.87
2018-04-18T11:10:29.819Z,1017.87
2018-04-18T11:11:29.845Z,1017.90
2018-04-18T11:12:29.875Z,1017.85
2018-04-18T11:13:29.900Z,1017.84
2018-04-18T11:14:29.920Z,1017.85
2018-04-18T11:15:29.947Z,1017.80
2018-04-18T11:16:29.964Z,1017.82
2018-04-18T11:17:29.992Z,1017.83
2018-04-18T11:18:30.014Z,1017.79
2018-04-18T11:19:30.038Z,1017.74
2018-04-18T11:20:30.064Z,1017.75
2018-04-18T11:21:30.091Z,1017.74
2018-04-18T11:22:30.115Z,1017.77
2018-04-18T11:23:30.140Z,1017.74
2018-04-18T11:24:30.164Z,1017.77
2018-04-18T11:25:30.185Z,1017.75
2018-04-18T11:26:30.210Z,1017.75
2018-04-18T11:27:30.236Z,1017.72
2018-04-18T11:28:30.258Z,1017.76
2018-04-18T11:29:30.300Z,1017.72
2018-04-18T11:30:30.309Z,1017.73
2018-04-18T11:31:30.333Z,1017.70
2018-04-18T11:32:30.357Z,1017.75
2018-04-18T11:33:30.380Z,1017.72
2018-04-18T11:34:30.408Z,1017.73
2018-04-18T11:35:30.435Z,1017.75
2018-04-18T11:36:30.455Z,1017.75
2018-04-18T11:37:30.484Z,1017.75
2018-04-18T11:38:30.507Z,1017.70
2018-04-18T11:39:30.531Z,1017.66
2018-04-18T11:40:30.555Z,1017.66
2018-04-18T11:41:30.578Z,1017.64
2018-04-18T11:42:30.659Z,1017.70
2018-04-18T11:43:30.630Z,1017.68
2018-04-18T11:44:30.659Z,1017.72
2018-04-18T11:45:30.742Z,1017.69
2018-04-18T11:46:30.700Z,1017.68
2018-04-18T11:47:30.725Z,1017.67
2018-04-18T11:48:30.751Z,1017.67
2018-04-18T11:49:30.771Z,1017.63
2018-04-18T11:50:30.798Z,1017.61
2018-04-18T11:51:30.825Z,1017.59
2018-04-18T11:52:30.847Z,1017.60
2018-04-18T11:53:30.869Z,1017.58
2018-04-18T11:54:30.894Z,1017.60
2018-04-18T11:55:30.920Z,1017.63
2018-04-18T11:56:30.945Z,1017.62
2018-04-18T11:57:31.028Z,1017.58
2018-04-18T11:58:30.992Z,1017.62
2018-04-18T11:59:31.019Z,1017.62
2018-04-18T12:00:31.041Z,1017.58
2018-04-18T12:01:31.067Z,1017.60
2018-04-18T12:02:31.090Z,1017.62
2018-04-18T12:03:31.117Z,1017.61
2018-04-18T12:04:31.141Z,1017.64
2018-04-18T12:05:31.165Z,1017.58